createdAt,value
2023-05-10T00:00:23.558Z,5.13
2023-05-10T00:02:50.946Z,9.00
2023-05-10T00:05:17.825Z,6.97
2023-05-10T00:07:45.958Z,8.50
2023-05-10T00:10:12.850Z,7.00
2023-05-10T00:12:40.010Z,6.45
2023-05-10T00:15:07.736Z,7.55
2023-05-10T00:17:34.574Z,6.57
2023-05-10T00:20:01.509Z,5.30
2023-05-10T00:22:28.274Z,7.63
2023-05-10T00:24:55.049Z,6.13
2023-05-10T00:27:21.886Z,7.72
2023-05-10T00:29:48.650Z,6.03
2023-05-10T00:32:15.425Z,6.60
2023-05-10T00:34:42.272Z,4.15
2023-05-10T00:37:09.190Z,4.80
2023-05-10T00:39:35.997Z,2.83
2023-05-10T00:42:02.780Z,5.38
2023-05-10T00:44:29.556Z,4.40
2023-05-10T00:46:56.351Z,4.88
2023-05-10T00:49:23.142Z,2.90
2023-05-10T00:51:50.585Z,2.83
2023-05-10T00:54:17.526Z,4.72
2023-05-10T00:56:49.600Z,2.47
2023-05-10T00:59:19.934Z,2.92
2023-05-10T01:01:47.856Z,1.85
2023-05-10T01:04:15.768Z,3.63
2023-05-10T01:06:43.107Z,2.25
2023-05-10T01:09:10.625Z,1.77
2023-05-10T01:11:39.357Z,2.88
2023-05-10T01:14:06.790Z,2.28
2023-05-10T01:16:39.186Z,1.88
2023-05-10T01:19:27.468Z,7.88
2023-05-10T01:22:25.923Z,2.35
2023-05-10T01:25:26.594Z,3.75
2023-05-10T01:28:24.126Z,3.80
2023-05-10T01:31:19.335Z,6.28
2023-05-10T01:33:53.616Z,4.07
2023-05-10T01:36:43.300Z,3.10
2023-05-10T01:39:18.417Z,2.40
2023-05-10T01:41:45.147Z,1.85
2023-05-10T01:44:52.893Z,6.70
2023-05-10T01:47:36.389Z,2.42
2023-05-10T01:50:05.859Z,3.38
2023-05-10T01:52:37.724Z,2.13
2023-05-10T01:55:10.210Z,3.35
2023-05-10T01:57:40.643Z,2.15
2023-05-10T02:00:09.461Z,3.65
2023-05-10T02:02:43.035Z,2.83
2023-05-10T02:05:13.023Z,4.28
2023-05-10T02:07:41.816Z,4.28
2023-05-10T02:10:10.416Z,2.28
2023-05-10T02:12:40.479Z,2.95
2023-05-10T02:15:08.986Z,4.35
2023-05-10T02:17:38.140Z,4.75
2023-05-10T02:20:07.464Z,3.15
2023-05-10T02:22:35.987Z,3.78
2023-05-10T02:25:04.474Z,4.15
2023-05-10T02:27:31.726Z,4.07
2023-05-10T02:29:59.529Z,6.15
2023-05-10T02:32:28.464Z,2.72
2023-05-10T02:34:56.722Z,3.90
2023-05-10T02:37:25.027Z,6.50
2023-05-10T02:39:53.655Z,2.38
2023-05-10T02:42:28.021Z,2.72
2023-05-10T02:45:00.302Z,4.60
2023-05-10T02:47:27.469Z,5.85
2023-05-10T02:49:54.533Z,2.63
2023-05-10T02:52:26.429Z,3.90
2023-05-10T02:57:31.164Z,3.47
2023-05-10T02:59:57.910Z,4.70
2023-05-10T03:02:24.933Z,4.35
2023-05-10T03:04:52.124Z,5.82
2023-05-10T03:07:22.270Z,4.28
2023-05-10T03:09:52.314Z,5.78
2023-05-10T03:12:33.106Z,6.25
2023-05-10T03:15:06.194Z,4.07
2023-05-10T03:17:52.754Z,6.15
2023-05-10T03:20:30.257Z,5.13
2023-05-10T03:23:06.204Z,4.60
2023-05-10T03:25:33.451Z,3.88
2023-05-10T03:28:02.714Z,5.25
2023-05-10T03:30:30.426Z,12.77
2023-05-10T03:32:58.046Z,4.53
2023-05-10T03:35:25.046Z,3.95
2023-05-10T03:37:51.818Z,4.40
2023-05-10T03:40:18.868Z,3.75
2023-05-10T03:42:45.745Z,4.35
2023-05-10T03:45:12.491Z,5.07
2023-05-10T03:47:39.385Z,4.13
2023-05-10T03:50:06.938Z,4.50
2023-05-10T03:52:33.774Z,4.93
2023-05-10T03:55:00.601Z,7.80
2023-05-10T03:57:27.410Z,4.97
2023-05-10T03:59:54.383Z,5.63
2023-05-10T04:02:21.285Z,4.70
2023-05-10T04:04:49.171Z,7.78
2023-05-10T04:07:16.146Z,4.93
2023-05-10T04:09:43.213Z,5.43
2023-05-10T04:12:10.984Z,5.63
2023-05-10T04:14:38.336Z,4.40
2023-05-10T04:17:05.226Z,5.10
2023-05-10T04:19:32.482Z,5.30
2023-05-10T04:21:59.753Z,5.60
2023-05-10T04:24:26.619Z,4.25
2023-05-10T04:26:56.550Z,9.20
2023-05-10T04:29:24.439Z,5.07
2023-05-10T04:31:51.934Z,6.05
2023-05-10T04:34:19.014Z,4.70
2023-05-10T04:36:45.756Z,4.50
2023-05-10T04:39:12.596Z,5.72
2023-05-10T04:41:39.580Z,4.75
2023-05-10T04:44:06.480Z,5.10
2023-05-10T04:46:33.682Z,5.78
2023-05-10T04:49:00.570Z,4.90
2023-05-10T04:51:27.360Z,3.80
2023-05-10T04:54:05.418Z,6.15
2023-05-10T04:56:33.926Z,6.65
2023-05-10T04:59:00.751Z,6.43
2023-05-10T05:01:27.574Z,5.82
2023-05-10T05:03:54.541Z,5.18
2023-05-10T05:06:25.777Z,6.38
2023-05-10T05:08:52.725Z,5.28
2023-05-10T05:11:19.555Z,6.15
2023-05-10T05:13:46.660Z,4.80
2023-05-10T05:16:13.632Z,5.22
2023-05-10T05:18:41.073Z,5.50
2023-05-10T05:21:17.879Z,8.15
2023-05-10T05:23:44.827Z,4.40
2023-05-10T05:26:12.159Z,4.80
2023-05-10T05:28:39.208Z,5.45
2023-05-10T05:31:06.717Z,4.72
2023-05-10T05:33:35.026Z,5.05
2023-05-10T05:36:02.978Z,6.10
2023-05-10T05:38:29.833Z,6.45
2023-05-10T05:41:04.743Z,5.38
2023-05-10T05:43:31.792Z,6.13
2023-05-10T05:46:01.389Z,7.65
2023-05-10T05:48:28.482Z,5.22
2023-05-10T05:50:57.049Z,6.57
2023-05-10T05:53:24.372Z,5.90
2023-05-10T05:55:55.862Z,7.28
2023-05-10T05:58:24.121Z,8.88
2023-05-10T06:00:53.264Z,4.72
2023-05-10T06:03:21.148Z,8.30
2023-05-10T06:05:48.305Z,4.97
2023-05-10T06:08:17.021Z,4.03
2023-05-10T06:10:44.035Z,6.72
2023-05-10T06:13:11.054Z,5.75
2023-05-10T06:15:37.931Z,5.40
2023-05-10T06:18:09.463Z,6.85
2023-05-10T06:20:36.331Z,5.88
2023-05-10T06:23:03.260Z,6.40
2023-05-10T06:25:30.465Z,5.20
2023-05-10T06:27:58.985Z,5.13
2023-05-10T06:30:30.321Z,5.07
2023-05-10T06:32:58.410Z,5.90
2023-05-10T06:35:25.505Z,5.10
2023-05-10T06:37:52.826Z,6.07
2023-05-10T06:40:22.720Z,6.40
2023-05-10T06:42:50.029Z,7.47
2023-05-10T06:45:23.343Z,6.80
2023-05-10T06:47:50.375Z,6.88
2023-05-10T06:50:17.365Z,6.22
2023-05-10T06:52:47.848Z,5.85
2023-05-10T06:55:15.174Z,4.47
2023-05-10T06:57:42.233Z,4.40
2023-05-10T07:00:10.809Z,4.57
2023-05-10T07:02:37.711Z,5.63
2023-05-10T07:05:04.771Z,4.20
2023-05-10T07:07:31.807Z,5.63
2023-05-10T07:09:58.862Z,5.68
2023-05-10T07:12:30.999Z,5.65
2023-05-10T07:14:58.510Z,8.90
2023-05-10T07:17:25.686Z,7.60
2023-05-10T07:19:53.199Z,4.35
2023-05-10T07:22:20.203Z,17.17
2023-05-10T07:24:47.230Z,3.60
2023-05-10T07:27:14.136Z,8.75
2023-05-10T07:29:40.982Z,9.07
2023-05-10T07:32:07.907Z,4.60
2023-05-10T07:34:36.034Z,4.80
2023-05-10T07:37:02.944Z,3.17
2023-05-10T07:39:29.827Z,6.90
2023-05-10T07:41:57.210Z,5.63
2023-05-10T07:44:24.255Z,6.50
2023-05-10T07:46:51.370Z,8.30
2023-05-10T07:49:18.884Z,3.90
2023-05-10T07:51:50.018Z,5.07
2023-05-10T07:54:23.500Z,6.57
2023-05-10T07:56:50.319Z,6.18
2023-05-10T07:59:18.326Z,5.85
2023-05-10T08:01:45.748Z,9.98
2023-05-10T08:04:12.965Z,10.07
2023-05-10T08:06:40.913Z,4.78
2023-05-10T08:09:07.871Z,4.97
2023-05-10T08:11:35.311Z,4.60
2023-05-10T08:14:02.294Z,11.55
2023-05-10T08:16:29.887Z,4.32
2023-05-10T08:18:57.003Z,7.40
2023-05-10T08:21:23.855Z,5.47
2023-05-10T08:23:51.326Z,4.70
2023-05-10T08:26:18.248Z,3.65
2023-05-10T08:28:44.999Z,4.07
2023-05-10T08:31:12.720Z,3.88
2023-05-10T08:33:40.950Z,3.50
2023-05-10T08:36:09.250Z,5.05
2023-05-10T08:38:36.207Z,4.40
2023-05-10T08:41:10.888Z,4.38
2023-05-10T08:43:38.518Z,3.30
2023-05-10T08:46:08.720Z,3.83
2023-05-10T08:48:36.598Z,3.50
2023-05-10T08:51:04.663Z,3.28
2023-05-10T08:53:34.215Z,4.78
2023-05-10T08:56:03.894Z,2.67
2023-05-10T08:58:30.873Z,3.92
2023-05-10T09:00:58.862Z,2.70
2023-05-10T09:03:28.214Z,5.68
2023-05-10T09:05:59.406Z,2.50
2023-05-10T09:08:27.389Z,3.08
2023-05-10T09:10:55.863Z,3.05
2023-05-10T09:13:24.321Z,3.72
2023-05-10T09:15:52.303Z,3.92
2023-05-10T09:18:20.444Z,3.40
2023-05-10T09:20:47.306Z,2.78
2023-05-10T09:23:14.164Z,2.42
2023-05-10T09:25:43.264Z,2.85
2023-05-10T09:28:10.502Z,2.97
2023-05-10T09:30:37.494Z,2.00
2023-05-10T09:33:04.890Z,3.83
2023-05-10T09:35:33.799Z,3.22
2023-05-10T09:38:08.796Z,2.88
2023-05-10T09:40:39.709Z,2.75
2023-05-10T09:43:10.064Z,2.93
2023-05-10T09:45:39.161Z,4.07
2023-05-10T09:51:00.408Z,3.42
2023-05-10T09:53:27.184Z,2.15
2023-05-10T09:55:56.177Z,1.92
2023-05-10T09:58:24.181Z,2.20
2023-05-10T10:01:01.344Z,4.35
2023-05-10T10:03:30.286Z,3.63
2023-05-10T10:05:58.248Z,3.03
2023-05-10T10:08:26.167Z,3.67
2023-05-10T10:10:53.199Z,2.67
2023-05-10T10:13:20.661Z,4.50
2023-05-10T10:15:52.121Z,3.38
2023-05-10T10:18:20.729Z,3.75
2023-05-10T10:20:49.050Z,2.85
2023-05-10T10:23:17.718Z,2.95
2023-05-10T10:25:46.360Z,4.10
2023-05-10T10:28:31.217Z,3.83
2023-05-10T10:31:05.119Z,2.47
2023-05-10T10:33:52.954Z,3.20
2023-05-10T10:36:21.380Z,3.92
2023-05-10T10:38:48.327Z,2.97
2023-05-10T10:41:54.615Z,5.22
2023-05-10T10:44:37.816Z,3.25
2023-05-10T10:47:34.278Z,4.18
2023-05-10T10:50:08.819Z,4.88
2023-05-10T10:52:40.873Z,4.70
2023-05-10T10:55:15.579Z,3.60
2023-05-10T10:57:42.745Z,3.40
2023-05-10T11:00:43.072Z,5.68
2023-05-10T11:03:15.849Z,2.80
2023-05-10T11:05:49.801Z,3.05
2023-05-10T11:08:22.021Z,3.85
2023-05-10T11:10:54.829Z,5.72
2023-05-10T11:13:43.590Z,3.53
2023-05-10T11:16:22.829Z,2.85
2023-05-10T11:19:06.062Z,3.33
2023-05-10T11:21:36.247Z,3.72
2023-05-10T11:24:06.891Z,3.33
2023-05-10T11:26:36.101Z,3.67
2023-05-10T11:29:04.203Z,3.50
2023-05-10T11:31:31.090Z,3.50
2023-05-10T11:34:02.845Z,3.20
2023-05-10T11:36:33.623Z,5.03
2023-05-10T11:39:00.917Z,4.07
2023-05-10T11:41:29.979Z,4.13
2023-05-10T11:43:58.007Z,3.53
2023-05-10T11:46:28.140Z,4.57
2023-05-10T11:49:03.158Z,4.40
2023-05-10T11:51:34.064Z,4.80
2023-05-10T11:54:01.028Z,5.13
2023-05-10T11:56:27.991Z,3.65
2023-05-10T11:58:56.987Z,3.95
2023-05-10T12:01:25.359Z,3.95
2023-05-10T12:03:54.667Z,3.60
2023-05-10T12:06:22.399Z,3.72
2023-05-10T12:08:53.607Z,6.43
2023-05-10T12:11:22.871Z,4.07
2023-05-10T12:13:50.906Z,4.43
2023-05-10T12:16:25.663Z,3.72
2023-05-10T12:18:55.150Z,3.47
2023-05-10T12:21:22.461Z,4.55
2023-05-10T12:23:55.828Z,4.25
2023-05-10T12:26:24.193Z,4.60
2023-05-10T12:28:51.530Z,4.88
2023-05-10T12:31:19.661Z,4.80
2023-05-10T12:33:49.159Z,5.13
2023-05-10T12:36:17.758Z,5.13
2023-05-10T12:38:50.995Z,4.00
2023-05-10T12:41:19.981Z,3.83
2023-05-10T12:43:49.416Z,5.28
2023-05-10T12:49:08.639Z,6.75
2023-05-10T12:51:37.346Z,9.60
2023-05-10T12:54:04.866Z,5.95
2023-05-10T12:56:32.531Z,7.43
2023-05-10T12:59:00.703Z,7.28
2023-05-10T13:01:27.778Z,6.13
2023-05-10T13:03:55.042Z,6.43
2023-05-10T13:06:21.870Z,5.25
2023-05-10T13:08:48.618Z,5.85
2023-05-10T13:11:24.873Z,9.05
2023-05-10T13:13:52.020Z,5.93
2023-05-10T13:16:20.245Z,6.00
2023-05-10T13:18:48.039Z,6.25
2023-05-10T13:21:15.057Z,6.90
2023-05-10T13:23:41.810Z,5.18
2023-05-10T13:26:08.710Z,5.80
2023-05-10T13:28:36.870Z,5.63
2023-05-10T13:31:06.448Z,6.55
2023-05-10T13:33:36.291Z,5.63
2023-05-10T13:36:03.183Z,5.07
2023-05-10T13:38:30.485Z,5.53
2023-05-10T13:40:58.400Z,7.97
2023-05-10T13:43:25.687Z,4.20
2023-05-10T13:45:53.215Z,8.57
2023-05-10T13:48:19.956Z,4.05
2023-05-10T13:50:47.302Z,5.82
2023-05-10T13:53:15.385Z,5.13
2023-05-10T13:55:42.799Z,5.68
2023-05-10T13:58:09.911Z,4.57
2023-05-10T14:00:36.852Z,4.10
2023-05-10T14:03:05.915Z,5.57
2023-05-10T14:05:32.770Z,6.57
2023-05-10T14:07:59.532Z,6.57
2023-05-10T14:10:26.567Z,6.70
2023-05-10T14:12:53.695Z,3.80
2023-05-10T14:15:21.056Z,5.93
2023-05-10T14:17:56.849Z,4.88
2023-05-10T14:20:24.098Z,9.15
2023-05-10T14:22:51.168Z,5.65
2023-05-10T14:25:19.444Z,4.50
2023-05-10T14:27:48.937Z,5.03
2023-05-10T14:30:15.980Z,4.53
2023-05-10T14:32:42.951Z,5.35
2023-05-10T14:35:12.186Z,4.35
2023-05-10T14:37:40.088Z,3.42
2023-05-10T14:40:11.095Z,4.65
2023-05-10T14:42:38.288Z,5.47
2023-05-10T14:45:05.885Z,4.30
2023-05-10T14:47:32.963Z,5.13
2023-05-10T14:50:00.070Z,4.93
2023-05-10T14:52:26.894Z,4.45
2023-05-10T14:54:55.778Z,4.47
2023-05-10T14:57:22.547Z,4.00
2023-05-10T14:59:49.318Z,6.78
2023-05-10T15:02:17.263Z,4.20
2023-05-10T15:04:49.021Z,4.70
2023-05-10T15:07:17.780Z,4.78
2023-05-10T15:09:45.180Z,4.60
2023-05-10T15:12:12.575Z,5.60
2023-05-10T15:14:39.407Z,7.35
2023-05-10T15:19:51.995Z,4.13
2023-05-10T15:22:19.005Z,4.38
2023-05-10T15:24:45.755Z,3.47
2023-05-10T15:27:14.949Z,4.35
2023-05-10T15:29:41.774Z,4.50
2023-05-10T15:32:11.780Z,4.50
2023-05-10T15:34:39.070Z,4.85
2023-05-10T15:37:06.936Z,4.18
2023-05-10T15:39:33.801Z,5.15
2023-05-10T15:42:00.617Z,6.43
2023-05-10T15:44:28.587Z,5.20
2023-05-10T15:46:57.850Z,6.55
2023-05-10T15:49:24.766Z,4.28
2023-05-10T15:51:51.780Z,4.45
2023-05-10T15:54:18.913Z,4.00
2023-05-10T15:56:45.841Z,4.25
2023-05-10T15:59:12.984Z,4.57
2023-05-10T16:01:41.655Z,6.35
2023-05-10T16:04:08.721Z,4.93
2023-05-10T16:06:37.964Z,30.02
2023-05-10T16:09:08.645Z,4.47
2023-05-10T16:11:35.508Z,3.55
2023-05-10T16:14:07.145Z,4.75
2023-05-10T16:19:04.287Z,3.58
2023-05-10T16:21:34.307Z,5.05
2023-05-10T16:24:03.071Z,4.50
2023-05-10T16:26:29.881Z,5.13
2023-05-10T16:28:56.760Z,4.05
2023-05-10T16:31:24.205Z,5.38
2023-05-10T16:33:51.190Z,5.80
2023-05-10T16:39:05.457Z,5.30
2023-05-10T16:41:35.564Z,5.45
2023-05-10T16:44:12.885Z,5.35
2023-05-10T16:49:24.443Z,5.78
2023-05-10T16:51:53.497Z,4.97
2023-05-10T16:54:27.554Z,5.90
2023-05-10T16:56:57.210Z,9.98
2023-05-10T16:59:37.936Z,6.03
2023-05-10T17:02:04.879Z,9.02
2023-05-10T17:04:32.679Z,6.20
2023-05-10T17:07:01.749Z,5.95
2023-05-10T17:09:28.653Z,4.97
2023-05-10T17:11:55.649Z,6.32
2023-05-10T17:14:22.940Z,4.72
2023-05-10T17:16:52.916Z,4.43
2023-05-10T17:19:20.075Z,3.72
2023-05-10T17:21:47.059Z,4.05
2023-05-10T17:24:15.577Z,4.55
2023-05-10T17:29:44.483Z,3.63
2023-05-10T17:32:16.098Z,3.90
2023-05-10T17:34:43.180Z,4.93
2023-05-10T17:37:12.633Z,5.40
2023-05-10T17:39:40.444Z,5.88
2023-05-10T17:42:07.487Z,4.32
2023-05-10T17:44:34.379Z,4.20
2023-05-10T17:47:01.196Z,3.80
2023-05-10T17:49:28.870Z,3.97
2023-05-10T17:51:55.914Z,4.32
2023-05-10T17:54:28.294Z,4.07
2023-05-10T17:59:39.997Z,5.90
2023-05-10T18:02:07.173Z,4.93
2023-05-10T18:04:37.321Z,4.70
2023-05-10T18:07:04.543Z,6.82
2023-05-10T18:09:32.100Z,6.70
2023-05-10T18:12:01.237Z,5.00
2023-05-10T18:14:39.920Z,5.82
2023-05-10T18:17:12.514Z,6.65
2023-05-10T18:19:41.143Z,6.53
2023-05-10T18:22:10.826Z,7.45
2023-05-10T18:24:40.069Z,6.40
2023-05-10T18:27:09.118Z,7.30
2023-05-10T18:29:37.044Z,8.63
2023-05-10T18:32:04.064Z,9.68
2023-05-10T18:34:31.236Z,12.68
2023-05-10T18:37:08.024Z,12.82
2023-05-10T18:39:36.193Z,12.85
2023-05-10T18:42:05.433Z,12.77
2023-05-10T18:44:32.293Z,13.90
2023-05-10T18:46:59.914Z,11.05
2023-05-10T18:49:27.880Z,10.38
2023-05-10T18:51:58.429Z,14.18
2023-05-10T18:54:25.437Z,12.75
2023-05-10T18:56:54.268Z,11.40
2023-05-10T18:59:22.827Z,12.93
2023-05-10T19:04:34.767Z,10.93
2023-05-10T19:07:05.970Z,7.40
2023-05-10T19:17:46.198Z,8.50
2023-05-10T19:23:09.643Z,8.43
2023-05-10T19:28:21.343Z,10.35
2023-05-10T19:30:51.908Z,7.82
2023-05-10T19:33:22.869Z,9.02
2023-05-10T19:35:52.942Z,6.00
2023-05-10T19:38:22.307Z,7.82
2023-05-10T19:40:50.311Z,6.95
2023-05-10T19:43:33.396Z,8.60
2023-05-10T19:46:27.916Z,8.93
2023-05-10T19:59:52.999Z,11.48
2023-05-10T20:17:06.729Z,11.90
2023-05-10T20:19:37.859Z,13.38
2023-05-10T20:24:56.261Z,12.30
2023-05-10T20:27:24.177Z,12.23
2023-05-10T20:29:53.290Z,10.77
2023-05-10T20:32:20.289Z,11.68
2023-05-10T20:34:50.129Z,9.50
2023-05-10T20:37:17.840Z,10.18
2023-05-10T20:39:45.088Z,8.90
2023-05-10T20:42:11.888Z,9.23
2023-05-10T20:44:39.777Z,9.55
2023-05-10T20:47:07.210Z,9.60
2023-05-10T20:49:35.931Z,9.30
2023-05-10T20:52:02.936Z,9.40
2023-05-10T20:54:30.135Z,9.55
2023-05-10T20:56:57.457Z,10.02
2023-05-10T20:59:24.304Z,9.80
2023-05-10T21:01:51.817Z,9.23
2023-05-10T21:04:18.721Z,8.35
2023-05-10T21:06:49.387Z,8.60
2023-05-10T21:09:19.340Z,8.07
2023-05-10T21:11:46.325Z,7.60
2023-05-10T21:14:14.357Z,9.20
2023-05-10T21:16:41.203Z,8.07
2023-05-10T21:19:08.759Z,9.00
2023-05-10T21:21:35.907Z,8.55
2023-05-10T21:24:02.789Z,8.23
2023-05-10T21:26:29.666Z,8.80
2023-05-10T21:28:56.634Z,12.90
2023-05-10T21:31:23.489Z,13.90
2023-05-10T21:33:50.428Z,13.25
2023-05-10T21:36:17.418Z,12.13
2023-05-10T21:38:45.112Z,11.70
2023-05-10T21:41:11.890Z,10.88
2023-05-10T21:43:40.688Z,18.73
2023-05-10T21:46:08.185Z,14.20
2023-05-10T21:48:35.919Z,7.75
2023-05-10T21:51:02.808Z,2.10
2023-05-10T21:53:29.612Z,2.10
2023-05-10T21:55:57.054Z,0.40
2023-05-10T21:58:24.657Z,1.40
2023-05-10T22:00:52.131Z,2.05
2023-05-10T22:03:19.061Z,0.63
2023-05-10T22:05:45.895Z,2.67
2023-05-10T22:08:12.861Z,1.90
2023-05-10T22:10:39.722Z,1.10
2023-05-10T22:13:07.914Z,1.67
2023-05-10T22:15:37.176Z,1.73
2023-05-10T22:18:04.229Z,4.82
2023-05-10T22:20:31.066Z,5.40
2023-05-10T22:22:58.003Z,5.38
2023-05-10T22:25:24.842Z,3.83
2023-05-10T22:27:51.624Z,6.82
2023-05-10T22:30:19.917Z,4.47
2023-05-10T22:32:48.211Z,3.83
2023-05-10T22:35:14.971Z,3.15
2023-05-10T22:37:41.791Z,6.55
2023-05-10T22:40:09.493Z,4.60
2023-05-10T22:42:36.269Z,2.70
2023-05-10T22:45:03.206Z,1.60
2023-05-10T22:47:30.082Z,4.30
2023-05-10T22:49:58.278Z,3.47
2023-05-10T22:52:25.370Z,3.65
2023-05-10T22:54:52.089Z,1.75
2023-05-10T22:57:20.042Z,8.95
2023-05-10T22:59:48.291Z,1.73
2023-05-10T23:02:15.790Z,2.97
2023-05-10T23:04:42.843Z,3.58
2023-05-10T23:07:09.722Z,1.58
2023-05-10T23:09:36.544Z,1.05
2023-05-10T23:12:03.438Z,0.17
2023-05-10T23:14:30.278Z,0.20
2023-05-10T23:16:57.070Z,0.30
2023-05-10T23:19:24.645Z,0.30
2023-05-10T23:21:51.549Z,1.63
2023-05-10T23:24:18.396Z,1.15
2023-05-10T23:26:46.594Z,0.47
2023-05-10T23:29:14.021Z,1.98
2023-05-10T23:31:45.472Z,1.17
2023-05-10T23:34:12.738Z,0.30
2023-05-10T23:36:39.722Z,0.52
2023-05-10T23:39:08.213Z,0.00
2023-05-10T23:41:35.165Z,1.17
2023-05-10T23:44:04.635Z,0.17
2023-05-10T23:46:31.387Z,0.30
2023-05-10T23:48:58.237Z,1.17
2023-05-10T23:51:25.026Z,0.00
2023-05-10T23:53:52.017Z,0.10
2023-05-10T23:56:18.888Z,0.35
2023-05-10T23:58:46.400Z,1.67
